Time;durP1;ratioP1;P1;durP2;ratioP2;P2;SDS_P1;SDS_P2;PMS_P1;PMS_P2;Temp;Humidity;BMP_temperature;BMP_pressure;BME280_temperature;BME280_humidity;BME280_pressure;Samples;Min_cycle;Max_cycle;Signal;HPM_P1;HPM_P2
2024/02/04 00:00:49;;;;;;;1.95;1.75;;;;;;;8.09;73.48;97720.25;4997827;28;20081;-79
2024/02/04 00:03:19;;;;;;;1.73;1.63;;;;;;;8.08;72.78;97718.59;4997247;28;20473;-79
2024/02/04 00:05:47;;;;;;;2.05;1.77;;;;;;;8.09;73.25;97714.22;4999444;28;20432;-83
2024/02/04 00:08:17;;;;;;;3.40;1.77;;;;;;;8.08;72.93;97708.22;5000477;28;20050;-80
2024/02/04 00:10:45;;;;;;;2.10;1.90;;;;;;;8.09;73.07;97704.66;4998555;28;20495;-80
2024/02/04 00:13:12;;;;;;;2.00;1.80;;;;;;;8.08;72.87;97697.81;4995848;28;20054;-79
2024/02/04 00:15:40;;;;;;;2.35;1.55;;;;;;;8.07;72.91;97685.78;4996290;28;20141;-79
2024/02/04 00:18:07;;;;;;;1.60;1.50;;;;;;;8.05;72.98;97695.50;4995947;28;20097;-80
2024/02/04 00:20:37;;;;;;;3.08;1.38;;;;;;;8.04;72.86;97696.44;4996183;28;20050;-81
2024/02/04 00:23:04;;;;;;;1.92;1.23;;;;;;;8.01;72.94;97683.75;4995579;28;20051;-79
2024/02/04 00:25:33;;;;;;;2.03;1.23;;;;;;;7.98;73.28;97684.84;4996036;28;20518;-80
2024/02/04 00:28:01;;;;;;;0.95;0.95;;;;;;;7.98;73.58;97677.06;4995782;28;20504;-79
2024/02/04 00:30:29;;;;;;;1.67;1.27;;;;;;;7.96;73.44;97671.19;4996176;28;20065;-79
2024/02/04 00:33:02;;;;;;;1.63;1.17;;;;;;;7.97;73.92;97659.00;4995214;28;20053;-80
2024/02/04 00:35:30;;;;;;;1.35;1.05;;;;;;;7.99;74.60;97651.88;4995651;28;20054;-80
2024/02/04 00:37:58;;;;;;;2.13;1.50;;;;;;;7.98;74.25;97645.88;4995059;28;20054;-80
2024/02/04 00:40:26;;;;;;;2.85;0.93;;;;;;;7.98;74.45;97655.44;4995349;28;20086;-79
2024/02/04 00:42:55;;;;;;;1.85;1.00;;;;;;;7.96;75.22;97646.94;4996044;28;20046;-80
2024/02/04 00:45:23;;;;;;;1.35;1.25;;;;;;;7.97;75.11;97643.41;4995170;28;20057;-80
2024/02/04 00:47:51;;;;;;;2.67;1.13;;;;;;;7.95;74.79;97640.94;4995664;28;20069;-80
2024/02/04 00:50:19;;;;;;;1.15;1.05;;;;;;;7.94;74.79;97654.09;4995137;28;20056;-80
2024/02/04 00:52:46;;;;;;;1.13;1.00;;;;;;;7.91;75.04;97670.75;4994026;28;20054;-81
2024/02/04 00:55:14;;;;;;;2.33;1.00;;;;;;;7.87;74.67;97674.59;4995040;28;20138;-81
2024/02/04 00:57:42;;;;;;;1.20;1.10;;;;;;;7.83;74.65;97681.84;4995612;28;20046;-80
2024/02/04 01:00:12;;;;;;;2.80;1.20;;;;;;;7.82;75.38;97690.56;4995809;28;20471;-79
2024/02/04 01:02:40;;;;;;;1.27;1.15;;;;;;;7.80;74.95;97695.09;4995220;28;20053;-80
2024/02/04 01:05:08;;;;;;;0.80;0.80;;;;;;;7.81;75.14;97693.34;4995498;28;20046;-83
2024/02/04 01:07:36;;;;;;;1.10;1.00;;;;;;;7.80;75.08;97678.69;4994932;28;20050;-80
2024/02/04 01:10:03;;;;;;;1.25;1.00;;;;;;;7.80;75.29;97686.47;4995289;28;20081;-82
2024/02/04 01:12:36;;;;;;;2.17;1.10;;;;;;;7.81;75.44;97685.53;4995552;28;20110;-83
2024/02/04 01:15:05;;;;;;;1.52;0.90;;;;;;;7.81;75.19;97680.34;4995007;28;20054;-79
2024/02/04 01:17:34;;;;;;;1.02;1.00;;;;;;;7.77;75.31;97676.38;4995358;28;20056;-80
2024/02/04 01:20:02;;;;;;;1.98;1.02;;;;;;;7.78;75.82;97676.25;4995815;28;20054;-80
2024/02/04 01:22:29;;;;;;;1.13;1.02;;;;;;;7.79;75.66;97672.69;4995844;28;20061;-83
2024/02/04 01:24:57;;;;;;;1.52;1.00;;;;;;;7.80;76.28;97669.13;4995125;28;20089;-80
2024/02/04 01:27:25;;;;;;;1.23;1.13;;;;;;;7.83;76.70;97668.03;4995185;28;20050;-79
2024/02/04 01:29:53;;;;;;;2.38;1.45;;;;;;;7.86;76.79;97672.94;4995874;28;20526;-81
2024/02/04 01:32:20;;;;;;;2.28;0.93;;;;;;;7.87;76.22;97674.59;4995530;28;20574;-80
2024/02/04 01:34:49;;;;;;;0.80;0.80;;;;;;;7.83;76.32;97668.84;4995278;28;20053;-81
2024/02/04 01:37:18;;;;;;;0.95;0.90;;;;;;;7.82;75.71;97667.19;4995722;28;20056;-80
2024/02/04 01:39:45;;;;;;;1.10;1.05;;;;;;;7.81;75.35;97662.97;4995200;28;20084;-81
2024/02/04 01:42:13;;;;;;;1.30;0.93;;;;;;;7.81;75.32;97660.38;4995323;28;20551;-83
2024/02/04 01:44:40;;;;;;;1.27;1.13;;;;;;;7.81;74.99;97655.19;4995408;28;20471;-80
2024/02/04 01:47:09;;;;;;;0.82;0.77;;;;;;;7.80;75.26;97663.91;4995502;28;20064;-84
2024/02/04 01:49:37;;;;;;;0.70;0.70;;;;;;;7.80;75.17;97653.53;4995374;28;20140;-80
2024/02/04 01:52:08;;;;;;;0.85;0.70;;;;;;;7.80;74.75;97648.34;4995843;28;20077;-82
2024/02/04 01:54:38;;;;;;;0.80;0.80;;;;;;;7.80;74.75;97639.72;4996016;28;20062;-80
2024/02/04 01:57:07;;;;;;;0.85;0.80;;;;;;;7.81;75.04;97641.38;4995681;28;20424;-79
2024/02/04 01:59:34;;;;;;;1.23;0.93;;;;;;;7.82;74.99;97635.22;4993760;28;20137;-79
2024/02/04 02:02:02;;;;;;;0.80;0.80;;;;;;;7.83;74.76;97629.09;4994360;28;20046;-83
2024/02/04 02:04:30;;;;;;;1.13;0.68;;;;;;;7.83;74.75;97632.50;4995357;28;20062;-80
2024/02/04 02:06:59;;;;;;;1.70;0.60;;;;;;;7.84;74.18;97638.50;4998331;28;20050;-82
2024/02/04 02:09:29;;;;;;;0.73;0.70;;;;;;;7.83;74.01;97644.66;4999788;28;20133;-79
2024/02/04 02:12:04;;;;;;;0.95;0.90;;;;;;;7.81;73.77;97641.38;4999042;28;20085;-82
2024/02/04 02:14:36;;;;;;;1.10;1.00;;;;;;;7.82;74.01;97637.81;4998516;28;20496;-82
2024/02/04 02:17:08;;;;;;;3.35;1.00;;;;;;;7.82;73.91;97641.22;4998552;28;20057;-83
2024/02/04 02:19:45;;;;;;;0.88;0.88;;;;;;;7.82;73.79;97650.81;4998238;28;20542;-80
2024/02/04 02:22:25;;;;;;;1.08;0.98;;;;;;;7.82;73.17;97645.59;4998289;28;20054;-81
2024/02/04 02:24:57;;;;;;;1.23;0.93;;;;;;;7.81;73.08;97664.75;4997668;28;20141;-83
2024/02/04 02:27:24;;;;;;;1.23;1.13;;;;;;;7.81;72.88;97662.16;4998167;28;20115;-81
2024/02/04 02:29:52;;;;;;;0.65;0.65;;;;;;;7.83;73.44;97653.28;4998373;28;20058;-80
2024/02/04 02:32:20;;;;;;;0.75;0.70;;;;;;;7.83;73.33;97648.06;4997644;28;20547;-84
2024/02/04 02:34:48;;;;;;;1.10;1.00;;;;;;;7.83;73.14;97637.69;4997826;28;20493;-83
2024/02/04 02:37:24;;;;;;;1.40;0.95;;;;;;;7.84;73.21;97641.09;4997540;28;20058;-84
2024/02/04 02:39:59;;;;;;;0.70;0.70;;;;;;;7.84;73.88;97654.91;4997314;28;20512;-83
2024/02/04 02:42:28;;;;;;;0.60;0.57;;;;;;;7.86;73.63;97653.97;4997458;28;20524;-79
2024/02/04 02:44:57;;;;;;;0.60;0.60;;;;;;;7.86;72.85;97646.97;4997752;28;20050;-82
2024/02/04 02:47:27;;;;;;;0.68;0.68;;;;;;;7.87;73.13;97647.78;4998195;28;20133;-81
2024/02/04 02:49:55;;;;;;;0.65;0.65;;;;;;;7.90;74.23;97644.94;4997264;28;20113;-80
2024/02/04 02:52:23;;;;;;;0.52;0.52;;;;;;;7.93;73.41;97647.25;4998200;28;20054;-82
2024/02/04 02:54:51;;;;;;;0.60;0.60;;;;;;;7.93;72.79;97642.03;4997405;28;20046;-81
2024/02/04 02:57:20;;;;;;;0.60;0.60;;;;;;;7.93;72.42;97642.03;4998452;28;20047;-81
2024/02/04 02:59:48;;;;;;;0.60;0.60;;;;;;;7.95;72.62;97640.13;4996989;28;20423;-81
2024/02/04 03:02:16;;;;;;;0.80;0.80;;;;;;;7.97;72.60;97648.59;4997189;28;20137;-81
2024/02/04 03:04:43;;;;;;;0.70;0.70;;;;;;;7.97;73.36;97631.22;4997098;28;20089;-81
2024/02/04 03:07:11;;;;;;;0.70;0.70;;;;;;;8.00;73.11;97635.31;4997435;28;20050;-83
2024/02/04 03:09:38;;;;;;;0.80;0.80;;;;;;;7.99;72.86;97636.28;4997515;28;20137;-80
2024/02/04 03:12:07;;;;;;;0.73;0.63;;;;;;;8.00;73.03;97645.72;4997482;28;20116;-83
2024/02/04 03:14:36;;;;;;;2.55;0.80;;;;;;;7.99;72.65;97644.91;4997276;28;20054;-82
2024/02/04 03:17:03;;;;;;;1.02;0.75;;;;;;;7.99;72.06;97647.50;4996744;28;20046;-80
2024/02/04 03:19:31;;;;;;;0.80;0.80;;;;;;;7.99;72.74;97644.09;4997561;28;20082;-82
2024/02/04 03:21:59;;;;;;;0.77;0.77;;;;;;;7.99;72.70;97646.69;4998193;28;20061;-81
2024/02/04 03:24:26;;;;;;;1.05;1.05;;;;;;;8.01;72.59;97647.38;4997317;28;20046;-79
2024/02/04 03:26:54;;;;;;;1.98;0.73;;;;;;;8.02;72.01;97641.19;5001769;28;20072;-79
2024/02/04 03:29:22;;;;;;;0.73;0.73;;;;;;;7.99;71.64;97646.69;5002588;28;20089;-81
2024/02/04 03:31:50;;;;;;;0.65;0.65;;;;;;;7.97;71.59;97643.41;5002592;28;20078;-79
2024/02/04 03:34:18;;;;;;;0.70;0.70;;;;;;;7.98;72.41;97647.63;4998850;28;20184;-80
2024/02/04 03:36:46;;;;;;;0.60;0.60;;;;;;;7.98;72.14;97650.22;4997461;28;20080;-81
2024/02/04 03:39:14;;;;;;;0.70;0.70;;;;;;;7.99;72.08;97638.91;4996120;28;20050;-79
2024/02/04 03:41:41;;;;;;;0.93;0.93;;;;;;;7.98;72.59;97625.09;4996198;28;20050;-79
2024/02/04 03:44:09;;;;;;;1.13;1.00;;;;;;;7.97;72.89;97620.03;4996584;28;20125;-80
2024/02/04 03:46:39;;;;;;;0.68;0.68;;;;;;;7.98;73.03;97624.25;4996553;28;20078;-79
2024/02/04 03:49:09;;;;;;;1.05;0.98;;;;;;;7.99;72.91;97628.50;4996859;28;20081;-80
2024/02/04 03:51:36;;;;;;;1.05;0.70;;;;;;;7.97;72.82;97633.00;4997522;28;20133;-80
2024/02/04 03:54:04;;;;;;;0.73;0.73;;;;;;;7.97;72.99;97633.81;4996445;28;20535;-80
2024/02/04 03:56:32;;;;;;;0.70;0.70;;;;;;;7.99;73.08;97641.50;4996749;28;20519;-82
2024/02/04 03:58:59;;;;;;;0.45;0.45;;;;;;;8.01;73.29;97647.38;4996780;28;20584;-80
2024/02/04 04:01:27;;;;;;;1.38;0.70;;;;;;;8.00;72.75;97645.72;4994933;28;20245;-79
2024/02/04 04:03:54;;;;;;;1.17;0.70;;;;;;;7.99;72.41;97657.09;4996217;28;20050;-79
2024/02/04 04:06:24;;;;;;;0.60;0.60;;;;;;;7.98;73.52;97650.22;4997374;28;20511;-81
2024/02/04 04:08:51;;;;;;;0.50;0.35;;;;;;;8.01;74.29;97640.38;4995920;28;20423;-79
2024/02/04 04:11:19;;;;;;;1.02;0.70;;;;;;;8.06;74.07;97639.97;4995801;28;20086;-80
2024/02/04 04:13:46;;;;;;;1.85;0.70;;;;;;;8.07;73.54;97649.41;4995838;28;20304;-78
2024/02/04 04:16:14;;;;;;;0.60;0.60;;;;;;;8.05;73.09;97646.94;4996722;28;20056;-80
2024/02/04 04:18:42;;;;;;;0.55;0.55;;;;;;;8.05;72.89;97643.53;4991666;28;20053;-79
2024/02/04 04:21:09;;;;;;;1.67;0.73;;;;;;;8.02;72.77;97643.78;4996224;28;20432;-79
2024/02/04 04:23:38;;;;;;;0.80;0.80;;;;;;;8.00;72.66;97641.38;4995961;28;20441;-79
2024/02/04 04:26:06;;;;;;;0.80;0.65;;;;;;;7.99;72.46;97631.09;4978764;28;20046;-79
2024/02/04 04:28:34;;;;;;;0.50;0.50;;;;;;;7.98;73.30;97625.09;4975732;28;20409;-81
2024/02/04 04:31:01;;;;;;;0.65;0.40;;;;;;;7.99;72.87;97641.50;4976222;28;20114;-79
2024/02/04 04:33:30;;;;;;;1.15;0.63;;;;;;;7.97;72.28;97639.03;4974917;28;20050;-81
2024/02/04 04:35:58;;;;;;;0.50;0.50;;;;;;;7.95;72.16;97640.94;4975253;28;20109;-79
2024/02/04 04:38:25;;;;;;;0.85;0.80;;;;;;;7.92;72.15;97645.63;4974206;28;20074;-79
2024/02/04 04:40:54;;;;;;;0.60;0.60;;;;;;;7.93;73.19;97647.25;4974577;28;20047;-79
2024/02/04 04:43:22;;;;;;;0.30;0.30;;;;;;;7.94;72.36;97657.50;4975239;28;20073;-79
2024/02/04 04:45:49;;;;;;;0.60;0.57;;;;;;;7.95;72.30;97663.50;4975963;28;20051;-80
2024/02/04 04:48:17;;;;;;;0.52;0.52;;;;;;;7.95;73.02;97659.13;4976524;28;20057;-79
2024/02/04 04:50:45;;;;;;;0.60;0.60;;;;;;;7.95;72.59;97646.13;4976227;28;20047;-79
2024/02/04 04:53:13;;;;;;;0.90;0.90;;;;;;;7.96;72.38;97649.53;4976030;28;20046;-79
2024/02/04 04:55:40;;;;;;;0.65;0.65;;;;;;;7.96;72.61;97641.75;4976429;28;20522;-79
2024/02/04 04:58:09;;;;;;;1.23;0.63;;;;;;;7.97;72.98;97638.22;4976168;28;20089;-80
2024/02/04 05:00:37;;;;;;;0.50;0.50;;;;;;;7.98;73.23;97639.84;4976293;28;20050;-79
2024/02/04 05:03:05;;;;;;;0.55;0.55;;;;;;;7.98;72.81;97626.84;4977104;28;20057;-81
2024/02/04 05:05:33;;;;;;;1.25;0.60;;;;;;;7.99;73.25;97631.09;4976639;28;20051;-79
2024/02/04 05:08:00;;;;;;;1.23;0.85;;;;;;;7.99;72.97;97633.69;4976017;28;20053;-80
2024/02/04 05:10:28;;;;;;;0.65;0.60;;;;;;;7.99;73.18;97631.09;4975789;28;20050;-82
2024/02/04 05:12:55;;;;;;;0.80;0.80;;;;;;;7.99;73.08;97629.31;4976427;28;20054;-79
2024/02/04 05:15:25;;;;;;;2.40;0.50;;;;;;;8.00;73.67;97627.53;4976453;28;20074;-80
2024/02/04 05:17:52;;;;;;;0.80;0.80;;;;;;;8.05;74.20;97646.13;4976359;28;20098;-80
2024/02/04 05:20:20;;;;;;;0.90;0.70;;;;;;;8.07;73.34;97639.03;4976826;28;20502;-79
2024/02/04 05:22:47;;;;;;;0.82;0.57;;;;;;;8.08;73.16;97642.44;4976078;28;20150;-80
2024/02/04 05:25:15;;;;;;;0.82;0.70;;;;;;;8.08;73.32;97635.44;4976308;28;20058;-81
2024/02/04 05:27:43;;;;;;;1.00;0.95;;;;;;;8.11;73.39;97635.19;4976577;28;20047;-80
2024/02/04 05:30:12;;;;;;;0.70;0.70;;;;;;;8.12;72.75;97641.19;4976890;28;20055;-79
2024/02/04 05:32:41;;;;;;;0.60;0.60;;;;;;;8.10;73.46;97638.72;4976264;28;20059;-84
2024/02/04 05:35:09;;;;;;;1.60;0.60;;;;;;;8.12;73.03;97636.00;4976322;28;20102;-80
2024/02/04 05:37:37;;;;;;;3.10;1.40;;;;;;;8.13;72.68;97633.22;4976269;28;20398;-80
2024/02/04 05:40:06;;;;;;;1.48;0.82;;;;;;;8.11;72.57;97634.34;4978385;28;20141;-81
2024/02/04 05:42:35;;;;;;;0.70;0.70;;;;;;;8.08;72.34;97640.66;4979706;28;20105;-79
2024/02/04 05:45:03;;;;;;;0.52;0.52;;;;;;;8.04;72.51;97644.47;4979750;28;20065;-78
2024/02/04 05:47:30;;;;;;;1.73;0.60;;;;;;;8.00;72.39;97643.97;4979811;28;20051;-79
2024/02/04 05:49:59;;;;;;;0.50;0.47;;;;;;;7.99;72.30;97639.69;4980008;28;20542;-80
2024/02/04 05:52:27;;;;;;;1.83;0.52;;;;;;;7.97;72.81;97638.22;4979816;28;20055;-81
2024/02/04 05:54:55;;;;;;;0.60;0.50;;;;;;;7.98;73.70;97651.06;4979669;28;20051;-79
2024/02/04 05:57:23;;;;;;;2.47;0.52;;;;;;;7.99;73.79;97649.28;4980298;28;20054;-83
2024/02/04 05:59:52;;;;;;;0.68;0.68;;;;;;;8.00;73.53;97663.91;4979772;28;20471;-80
2024/02/04 06:02:20;;;;;;;0.93;0.60;;;;;;;7.99;72.98;97663.09;4979571;28;20055;-82
2024/02/04 06:04:48;;;;;;;1.05;0.65;;;;;;;7.93;72.75;97657.63;4979385;28;20047;-80
2024/02/04 06:07:17;;;;;;;0.68;0.55;;;;;;;7.92;73.82;97667.22;4979486;28;20369;-79
2024/02/04 06:09:45;;;;;;;0.65;0.65;;;;;;;7.93;73.93;97647.25;4979923;28;20050;-80
2024/02/04 06:12:12;;;;;;;1.25;0.82;;;;;;;7.93;73.70;97642.03;4979936;28;20054;-80
2024/02/04 06:14:40;;;;;;;1.13;0.80;;;;;;;7.92;73.76;97641.22;4979723;28;20047;-79
2024/02/04 06:17:10;;;;;;;0.40;0.40;;;;;;;7.89;73.87;97636.28;4979955;28;20133;-83
2024/02/04 06:19:37;;;;;;;0.63;0.60;;;;;;;7.88;73.52;97628.66;4979550;28;20078;-80
2024/02/04 06:22:05;;;;;;;0.68;0.57;;;;;;;7.88;73.82;97636.47;4979469;28;20054;-79
2024/02/04 06:24:36;;;;;;;0.43;0.43;;;;;;;7.86;73.97;97643.56;4979598;28;20055;-84
2024/02/04 06:27:04;;;;;;;1.77;0.60;;;;;;;7.83;74.11;97637.69;4979597;28;20145;-82
2024/02/04 06:29:32;;;;;;;0.30;0.30;;;;;;;7.82;74.28;97646.41;4977688;28;20086;-80
2024/02/04 06:32:00;;;;;;;0.60;0.60;;;;;;;7.82;74.34;97646.41;4979253;28;20060;-80
2024/02/04 06:34:27;;;;;;;0.63;0.60;;;;;;;7.81;74.91;97641.38;4979046;28;20054;-81
2024/02/04 06:36:55;;;;;;;0.22;0.22;;;;;;;7.82;75.06;97641.22;4977847;28;20109;-80
2024/02/04 06:39:23;;;;;;;0.60;0.60;;;;;;;7.84;74.91;97649.69;5019196;23;20519;-77
2024/02/04 06:41:52;;;;;;;1.83;0.43;;;;;;;7.87;74.91;97647.78;5015015;28;20172;-77
2024/02/04 06:44:19;;;;;;;0.70;0.70;;;;;;;7.87;74.60;97650.38;5014775;28;20137;-77
2024/02/04 06:46:47;;;;;;;0.32;0.30;;;;;;;7.87;74.45;97647.78;5014827;28;20052;-77
2024/02/04 06:49:18;;;;;;;1.70;0.47;;;;;;;7.89;74.48;97656.25;5015127;28;20120;-77
2024/02/04 06:51:47;;;;;;;0.35;0.35;;;;;;;7.89;74.54;97648.47;5013668;28;20058;-78
2024/02/04 06:54:14;;;;;;;0.50;0.50;;;;;;;7.87;74.00;97659.03;5014703;28;20287;-77
2024/02/04 06:56:42;;;;;;;0.22;0.22;;;;;;;7.86;73.83;97667.75;5014738;28;20521;-78
2024/02/04 06:59:10;;;;;;;0.90;0.30;;;;;;;7.86;74.29;97672.94;5014760;28;20108;-77
2024/02/04 07:01:38;;;;;;;0.40;0.25;;;;;;;7.84;74.08;97657.50;5014715;28;20137;-77
2024/02/04 07:04:06;;;;;;;0.63;0.35;;;;;;;7.87;74.39;97663.38;5014191;28;20140;-77
2024/02/04 07:06:33;;;;;;;0.30;0.30;;;;;;;7.88;73.87;97670.22;5015447;28;20423;-78
2024/02/04 07:09:01;;;;;;;0.95;0.40;;;;;;;7.88;74.38;97665.03;5014273;28;20077;-77
2024/02/04 07:11:29;;;;;;;0.10;0.10;;;;;;;7.88;73.94;97662.44;5014659;28;20112;-77
2024/02/04 07:14:00;;;;;;;0.28;0.28;;;;;;;7.86;73.70;97661.75;5014098;28;20050;-77
2024/02/04 07:16:29;;;;;;;0.80;0.40;;;;;;;7.83;73.88;97663.66;5008692;28;20054;-78
2024/02/04 07:18:56;;;;;;;0.40;0.40;;;;;;;7.81;73.91;97670.78;4993606;28;20077;-78
2024/02/04 07:21:24;;;;;;;1.27;0.38;;;;;;;7.83;74.07;97668.84;4994754;28;20070;-78
2024/02/04 07:23:52;;;;;;;0.43;0.32;;;;;;;7.84;73.71;97654.91;4995001;28;20054;-79
2024/02/04 07:26:19;;;;;;;0.20;0.20;;;;;;;7.82;74.35;97659.41;4994059;28;20138;-79
2024/02/04 07:28:47;;;;;;;0.55;0.30;;;;;;;7.82;74.95;97656.81;4994542;28;20081;-78
2024/02/04 07:31:14;;;;;;;1.75;0.50;;;;;;;7.86;74.72;97654.78;4994092;28;20110;-79
2024/02/04 07:33:43;;;;;;;0.30;0.30;;;;;;;7.89;74.14;97648.47;4994338;28;20133;-79
2024/02/04 07:36:11;;;;;;;0.95;0.45;;;;;;;7.91;74.84;97655.16;4998221;28;20504;-79
2024/02/04 07:38:39;;;;;;;1.70;0.40;;;;;;;7.90;74.44;97648.34;4994142;28;20042;-79
2024/02/04 07:41:06;;;;;;;0.32;0.28;;;;;;;7.90;74.15;97663.94;4994478;28;20825;-79
2024/02/04 07:43:34;;;;;;;0.47;0.47;;;;;;;7.88;73.88;97650.25;4994239;28;20138;-79
2024/02/04 07:46:03;;;;;;;0.50;0.50;;;;;;;7.89;73.83;97648.47;4994166;28;20049;-78
2024/02/04 07:48:31;;;;;;;0.63;0.40;;;;;;;7.89;74.02;97653.66;4994417;28;20133;-79
2024/02/04 07:51:00;;;;;;;0.25;0.25;;;;;;;7.89;73.92;97648.47;4994212;28;20046;-78
2024/02/04 07:53:28;;;;;;;0.35;0.30;;;;;;;7.89;73.91;97653.66;5009217;28;20060;-78
2024/02/04 07:55:55;;;;;;;0.40;0.30;;;;;;;7.88;73.44;97649.44;5014188;28;20081;-78
2024/02/04 07:58:23;;;;;;;1.63;0.50;;;;;;;7.84;73.46;97639.31;5012082;28;20065;-78
2024/02/04 08:00:50;;;;;;;0.30;0.30;;;;;;;7.86;73.56;97630.56;5007775;28;20129;-78
2024/02/04 08:03:18;;;;;;;1.33;0.50;;;;;;;7.88;73.33;97626.88;4993612;28;20096;-78
2024/02/04 08:05:46;;;;;;;2.80;0.60;;;;;;;7.91;73.71;97633.56;4993817;28;20089;-78
2024/02/04 08:08:15;;;;;;;0.40;0.40;;;;;;;7.93;74.63;97636.84;4994217;28;20057;-77
2024/02/04 08:10:43;;;;;;;1.13;0.73;;;;;;;7.94;74.03;97628.91;4994193;28;20050;-79
2024/02/04 08:13:10;;;;;;;34.17;18.70;;;;;;;7.95;74.02;97634.94;4994077;28;20489;-78
2024/02/04 08:15:38;;;;;;;47.65;28.52;;;;;;;7.96;74.38;97636.56;4994229;28;20054;-78
2024/02/04 08:18:06;;;;;;;4.88;2.35;;;;;;;7.98;74.02;97624.25;4993915;28;20051;-78
2024/02/04 08:20:35;;;;;;;1.48;0.73;;;;;;;7.99;74.08;97625.91;4993699;28;20468;-79
2024/02/04 08:23:02;;;;;;;1.35;0.50;;;;;;;8.02;74.68;97626.44;4993962;28;20133;-78
2024/02/04 08:25:31;;;;;;;0.52;0.52;;;;;;;8.05;73.98;97627.94;4993605;28;20567;-78
2024/02/04 08:27:59;;;;;;;0.57;0.57;;;;;;;8.05;73.60;97622.75;4993320;28;20174;-78
2024/02/04 08:30:27;;;;;;;0.70;0.70;;;;;;;8.08;73.35;97634.63;5005715;28;20045;-78
2024/02/04 08:32:54;;;;;;;0.28;0.28;;;;;;;8.07;73.37;97641.63;4993219;28;20090;-80
2024/02/04 08:35:22;;;;;;;1.30;0.30;;;;;;;8.08;73.87;97637.22;4993384;28;20063;-78
2024/02/04 08:37:50;;;;;;;1.25;0.43;;;;;;;8.11;74.23;97649.94;4994049;28;20046;-79
2024/02/04 08:40:17;;;;;;;0.73;0.50;;;;;;;8.15;73.63;97646.09;4993526;28;20054;-79
2024/02/04 08:42:46;;;;;;;0.98;0.60;;;;;;;8.18;73.61;97645.84;4994508;28;20504;-79
2024/02/04 08:45:14;;;;;;;0.68;0.55;;;;;;;8.21;73.74;97641.16;5019411;28;20053;-78
2024/02/04 08:47:42;;;;;;;0.95;0.80;;;;;;;8.25;73.36;97647.72;5031284;28;20062;-81
2024/02/04 08:50:12;;;;;;;0.77;0.45;;;;;;;8.29;72.63;97642.22;5033053;28;20056;-79
2024/02/04 08:52:39;;;;;;;0.60;0.60;;;;;;;8.34;72.59;97640.84;5018757;28;20049;-79
2024/02/04 08:55:08;;;;;;;1.00;0.90;;;;;;;8.39;72.90;97633.44;5011676;28;20069;-78
2024/02/04 08:57:36;;;;;;;0.60;0.60;;;;;;;8.41;73.55;97638.53;5013042;28;20134;-76
2024/02/04 09:00:08;;;;;;;0.38;0.38;;;;;;;8.45;73.04;97639.88;5011590;28;20049;-78
2024/02/04 09:02:35;;;;;;;0.47;0.40;;;;;;;8.51;72.16;97628.91;4994087;28;20057;-79
2024/02/04 09:05:03;;;;;;;0.60;0.60;;;;;;;8.55;71.84;97622.47;4993732;28;20127;-78
2024/02/04 09:07:31;;;;;;;0.47;0.40;;;;;;;8.58;72.04;97616.97;4993500;28;20494;-79
2024/02/04 09:10:01;;;;;;;1.08;0.55;;;;;;;8.63;71.85;97617.34;4993524;28;20053;-78
2024/02/04 09:12:28;;;;;;;0.30;0.30;;;;;;;8.65;71.75;97625.81;4993156;28;20093;-79
2024/02/04 09:14:56;;;;;;;30.05;16.20;;;;;;;8.70;71.54;97632.38;4994864;28;20050;-78
2024/02/04 09:17:25;;;;;;;8.95;4.82;;;;;;;8.73;70.70;97638.13;4997051;28;20053;-78
2024/02/04 09:19:53;;;;;;;2.08;0.60;;;;;;;8.71;70.63;97642.66;4997333;28;20042;-78
2024/02/04 09:22:20;;;;;;;0.65;0.50;;;;;;;8.69;70.77;97643.75;4997871;28;20491;-78
2024/02/04 09:24:48;;;;;;;0.85;0.50;;;;;;;8.69;70.47;97636.78;4997474;28;20054;-78
2024/02/04 09:27:16;;;;;;;0.43;0.43;;;;;;;8.69;70.63;97631.56;4996911;28;20133;-78
2024/02/04 09:29:43;;;;;;;0.38;0.38;;;;;;;8.68;70.33;97634.31;4998071;28;20069;-79
2024/02/04 09:32:11;;;;;;;0.82;0.63;;;;;;;8.71;71.06;97627.03;4999745;28;20089;-81
2024/02/04 09:34:46;;;;;;;0.50;0.50;;;;;;;8.73;71.41;97639.91;5007034;28;20034;-80
2024/02/04 09:37:14;;;;;;;0.30;0.28;;;;;;;8.75;70.32;97638.00;5001586;28;20503;-80
2024/02/04 09:39:41;;;;;;;0.50;0.50;;;;;;;8.73;70.16;97642.53;5002645;28;20070;-78
2024/02/04 09:42:09;;;;;;;0.32;0.30;;;;;;;8.73;70.28;97642.53;5000643;28;20057;-78
2024/02/04 09:44:38;;;;;;;0.30;0.30;;;;;;;8.74;70.79;97637.16;4997949;28;20055;-79
2024/02/04 09:47:07;;;;;;;6.60;3.72;;;;;;;8.80;70.70;97646.16;4996875;28;20046;-77
2024/02/04 09:49:35;;;;;;;2.58;1.60;;;;;;;8.86;70.08;97640.41;4995076;28;20078;-78
2024/02/04 09:52:08;;;;;;;6.00;2.80;;;;;;;8.91;69.84;97645.97;4993972;28;20046;-77
2024/02/04 09:54:44;;;;;;;3.80;1.60;;;;;;;9.00;70.20;97637.28;4995889;28;20057;-77
2024/02/04 09:57:13;;;;;;;0.80;0.70;;;;;;;9.10;69.67;97636.44;4994471;28;20050;-77
2024/02/04 09:59:43;;;;;;;4.30;0.70;;;;;;;9.13;69.28;97631.72;5003205;28;20049;-77
2024/02/04 10:02:12;;;;;;;1.20;0.90;;;;;;;9.15;69.96;97637.59;4999780;28;20058;-78
2024/02/04 10:04:42;;;;;;;1.23;0.95;;;;;;;9.18;69.75;97626.06;4996691;28;20101;-79
2024/02/04 10:07:14;;;;;;;1.33;1.23;;;;;;;9.23;70.00;97631.69;4997016;28;20053;-79
2024/02/04 10:09:42;;;;;;;2.25;1.42;;;;;;;9.29;70.25;97625.84;4996341;28;20078;-78
2024/02/04 10:12:10;;;;;;;1.45;1.00;;;;;;;9.36;69.90;97632.13;4996439;28;20046;-78
2024/02/04 10:14:38;;;;;;;1.52;0.75;;;;;;;9.38;69.14;97648.44;5014407;28;20554;-78
2024/02/04 10:17:06;;;;;;;1.13;0.82;;;;;;;9.39;69.26;97646.63;5034039;28;20471;-79
2024/02/04 10:19:33;;;;;;;2.05;0.70;;;;;;;9.38;68.96;97645.81;5017136;28;20050;-78
2024/02/04 10:22:02;;;;;;;1.00;0.60;;;;;;;9.39;68.88;97639.63;5008322;28;20058;-79
2024/02/04 10:24:31;;;;;;;0.90;0.50;;;;;;;9.38;68.69;97639.78;5002196;28;20054;-78
2024/02/04 10:26:59;;;;;;;1.63;0.63;;;;;;;9.39;68.76;97646.63;5031238;28;20046;-78
2024/02/04 10:29:27;;;;;;;0.50;0.32;;;;;;;9.39;68.26;97631.81;5015922;28;20070;-77
2024/02/04 10:31:56;;;;;;;1.65;0.70;;;;;;;9.41;68.25;97627.28;5029490;28;20561;-78
2024/02/04 10:34:23;;;;;;;0.32;0.32;;;;;;;9.41;68.52;97623.88;5018600;28;20054;-78
2024/02/04 10:36:51;;;;;;;0.60;0.60;;;;;;;9.41;69.17;97598.63;4997700;28;20046;-77
2024/02/04 10:39:19;;;;;;;2.20;1.23;;;;;;;9.49;69.13;97601.31;4996175;28;20065;-78
2024/02/04 10:41:51;;;;;;;1.05;0.38;;;;;;;9.59;68.08;97590.00;4999985;28;20051;-78
2024/02/04 10:44:24;;;;;;;0.50;0.45;;;;;;;9.66;69.03;97580.59;5004493;28;20045;-78
2024/02/04 10:46:52;;;;;;;;;;;;;;;9.70;68.70;97571.50;5001432;28;20050;-78
2024/02/04 10:49:20;;;;;;;2.95;1.30;;;;;;;9.70;68.13;97587.94;4995177;28;19961;-78
2024/02/04 10:51:49;;;;;;;1.00;0.52;;;;;;;9.72;68.43;97585.22;4995822;28;20089;-77
2024/02/04 10:54:18;;;;;;;2.97;1.17;;;;;;;9.76;68.25;97577.91;4994995;28;20046;-80
2024/02/04 10:56:47;;;;;;;0.40;0.40;;;;;;;9.79;68.89;97583.63;5000254;28;20046;-77
2024/02/04 10:59:20;;;;;;;2.03;1.23;;;;;;;9.80;67.83;97576.63;4995409;28;20459;-78
2024/02/04 11:01:49;;;;;;;0.40;0.30;;;;;;;9.77;67.51;97577.75;4994719;28;20078;-77
2024/02/04 11:04:18;;;;;;;0.88;0.88;;;;;;;9.76;67.47;97581.34;4997692;28;20053;-78
2024/02/04 11:06:46;;;;;;;0.28;0.28;;;;;;;9.78;67.48;97568.16;4997974;28;20443;-77
2024/02/04 11:09:17;;;;;;;1.50;0.50;;;;;;;9.80;67.60;97577.44;4996715;28;20046;-78
2024/02/04 11:11:46;;;;;;;0.20;0.20;;;;;;;9.78;67.42;97574.19;4997764;28;20081;-78
2024/02/04 11:14:20;;;;;;;0.25;0.25;;;;;;;9.78;67.69;97582.00;4996998;28;20054;-78
2024/02/04 11:17:21;;;;;;;0.30;0.30;;;;;;;9.75;67.10;97566.69;4994686;28;20050;-77
2024/02/04 11:20:05;;;;;;;0.95;0.20;;;;;;;9.74;67.26;97575.44;4994806;28;20046;-78
2024/02/04 11:22:56;;;;;;;0.25;0.20;;;;;;;9.74;66.69;97562.41;4994978;28;20101;-79
2024/02/04 11:25:43;;;;;;;0.30;0.30;;;;;;;9.73;66.88;97547.78;4997987;28;20054;-79
2024/02/04 11:28:12;;;;;;;0.55;0.30;;;;;;;9.76;67.20;97549.25;4999556;28;20054;-79
2024/02/04 11:30:41;;;;;;;2.08;0.40;;;;;;;9.78;67.21;97542.91;4998511;28;20042;-80
2024/02/04 11:33:11;;;;;;;1.08;0.32;;;;;;;9.86;67.71;97544.72;4996667;28;20558;-79
2024/02/04 11:35:39;;;;;;;0.57;0.40;;;;;;;9.92;67.25;97554.53;4995337;28;20447;-79
2024/02/04 11:38:07;;;;;;;1.08;0.43;;;;;;;9.96;66.67;97552.47;5005627;28;20046;-80
2024/02/04 11:40:36;;;;;;;0.38;0.30;;;;;;;9.95;66.46;97553.41;5012047;28;20046;-80
2024/02/04 11:43:05;;;;;;;0.30;0.30;;;;;;;10.00;67.89;97561.63;5006860;28;20424;-79
2024/02/04 11:45:38;;;;;;;2.03;0.45;;;;;;;10.06;67.47;97547.97;4997685;28;20046;-76
2024/02/04 11:48:09;;;;;;;0.32;0.30;;;;;;;10.11;68.07;97538.69;5014739;28;20052;-80